createdAt,value
2023-05-12T00:01:14.531Z,8.43
2023-05-12T00:03:41.820Z,14.23
2023-05-12T00:06:08.689Z,14.48
2023-05-12T00:08:35.352Z,12.32
2023-05-12T00:11:02.435Z,14.43
2023-05-12T00:13:29.194Z,13.25
2023-05-12T00:15:59.229Z,11.38
2023-05-12T00:18:28.750Z,11.57
2023-05-12T00:20:55.987Z,14.93
2023-05-12T00:23:25.284Z,7.50
2023-05-12T00:25:51.939Z,8.00
2023-05-12T00:28:19.139Z,8.52
2023-05-12T00:30:46.099Z,8.18
2023-05-12T00:33:17.271Z,11.00
2023-05-12T00:35:45.717Z,10.98
2023-05-12T00:38:13.194Z,10.35
2023-05-12T00:40:40.809Z,9.07
2023-05-12T00:43:08.690Z,7.50
2023-05-12T00:45:35.537Z,11.43
2023-05-12T00:48:02.253Z,9.90
2023-05-12T00:50:29.088Z,11.13
2023-05-12T00:52:55.819Z,12.02
2023-05-12T00:55:22.615Z,9.93
2023-05-12T00:57:49.423Z,8.95
2023-05-12T01:00:16.516Z,10.93
2023-05-12T01:02:43.303Z,10.43
2023-05-12T01:05:10.517Z,8.35
2023-05-12T01:07:39.307Z,9.07
2023-05-12T01:10:17.992Z,6.97
2023-05-12T01:12:44.963Z,12.00
2023-05-12T01:15:12.966Z,8.75
2023-05-12T01:17:42.422Z,9.10
2023-05-12T01:20:12.461Z,8.43
2023-05-12T01:22:39.770Z,9.15
2023-05-12T01:25:08.957Z,7.93
2023-05-12T01:27:37.288Z,11.60
2023-05-12T01:30:05.899Z,10.50
2023-05-12T01:32:32.809Z,9.77
2023-05-12T01:34:59.571Z,8.00
2023-05-12T01:37:27.100Z,10.07
2023-05-12T01:39:54.544Z,12.23
2023-05-12T01:42:21.493Z,11.45
2023-05-12T01:44:48.324Z,9.32
2023-05-12T01:47:16.055Z,11.82
2023-05-12T01:49:42.891Z,9.18
2023-05-12T01:52:09.584Z,8.40
2023-05-12T01:54:37.684Z,14.10
2023-05-12T01:57:04.888Z,8.00
2023-05-12T01:59:31.542Z,11.45
2023-05-12T02:01:58.453Z,7.65
2023-05-12T02:04:25.209Z,9.18
2023-05-12T02:06:52.257Z,12.45
2023-05-12T02:09:19.002Z,10.02
2023-05-12T02:11:45.709Z,13.40
2023-05-12T02:14:12.426Z,27.58
2023-05-12T02:16:39.233Z,12.30
2023-05-12T02:19:06.163Z,11.07
2023-05-12T02:21:33.780Z,11.57
2023-05-12T02:24:00.547Z,9.57
2023-05-12T02:26:27.297Z,12.85
2023-05-12T02:28:54.644Z,14.63
2023-05-12T02:31:21.350Z,14.40
2023-05-12T02:33:48.611Z,13.48
2023-05-12T02:36:15.295Z,11.95
2023-05-12T02:38:42.170Z,8.98
2023-05-12T02:41:08.808Z,14.82
2023-05-12T02:43:35.488Z,11.80
2023-05-12T02:46:02.224Z,11.50
2023-05-12T02:48:28.875Z,12.35
2023-05-12T02:50:56.176Z,11.73
2023-05-12T02:53:23.023Z,15.38
2023-05-12T02:55:49.695Z,11.52
2023-05-12T02:58:16.415Z,17.65
2023-05-12T03:00:43.136Z,12.90
2023-05-12T03:03:09.976Z,13.27
2023-05-12T03:05:36.664Z,16.80
2023-05-12T03:08:03.749Z,18.30
2023-05-12T03:10:30.843Z,15.52
2023-05-12T03:12:57.528Z,12.13
2023-05-12T03:15:24.386Z,16.63
2023-05-12T03:17:51.122Z,11.00
2023-05-12T03:20:18.278Z,20.98
2023-05-12T03:22:45.220Z,17.20
2023-05-12T03:25:12.502Z,13.35
2023-05-12T03:27:39.320Z,15.68
2023-05-12T03:30:07.053Z,13.10
2023-05-12T03:32:33.823Z,10.07
2023-05-12T03:35:00.578Z,11.82
2023-05-12T03:37:27.303Z,14.15
2023-05-12T03:39:56.323Z,10.93
2023-05-12T03:42:25.767Z,13.02
2023-05-12T03:44:52.660Z,11.70
2023-05-12T03:47:19.511Z,14.07
2023-05-12T03:49:46.378Z,15.15
2023-05-12T03:52:15.616Z,14.32
2023-05-12T03:54:42.292Z,15.10
2023-05-12T03:57:08.996Z,11.85
2023-05-12T03:59:35.716Z,16.48
2023-05-12T04:02:07.874Z,13.02
2023-05-12T04:04:34.735Z,13.18
2023-05-12T04:07:01.555Z,11.90
2023-05-12T04:09:28.242Z,10.90
2023-05-12T04:11:56.993Z,13.32
2023-05-12T04:14:31.803Z,11.55
2023-05-12T04:17:06.107Z,11.98
2023-05-12T04:19:32.775Z,8.75
2023-05-12T04:21:59.400Z,11.63
2023-05-12T04:24:27.211Z,9.13
2023-05-12T04:26:53.965Z,8.18
2023-05-12T04:29:20.832Z,10.90
2023-05-12T04:31:47.479Z,8.20
2023-05-12T04:34:14.133Z,7.68
2023-05-12T04:36:40.989Z,12.15
2023-05-12T04:39:07.620Z,12.00
2023-05-12T04:41:34.719Z,9.73
2023-05-12T04:44:01.434Z,10.32
2023-05-12T04:46:28.196Z,13.65
2023-05-12T04:48:54.974Z,13.60
2023-05-12T04:51:21.756Z,8.65
2023-05-12T04:53:48.370Z,8.90
2023-05-12T04:56:15.203Z,10.85
2023-05-12T04:58:41.913Z,13.10
2023-05-12T05:01:08.566Z,10.05
2023-05-12T05:03:35.454Z,9.13
2023-05-12T05:06:02.151Z,10.18
2023-05-12T05:08:28.829Z,8.68
2023-05-12T05:10:55.559Z,9.13
2023-05-12T05:13:22.310Z,11.13
2023-05-12T05:15:53.244Z,9.93
2023-05-12T05:18:22.364Z,7.57
2023-05-12T05:20:57.309Z,8.45
2023-05-12T05:23:26.116Z,9.57
2023-05-12T05:25:53.163Z,7.28
2023-05-12T05:28:19.923Z,9.82
2023-05-12T05:30:46.579Z,12.18
2023-05-12T05:33:13.346Z,10.68
2023-05-12T05:35:40.352Z,7.47
2023-05-12T05:38:09.949Z,7.65
2023-05-12T05:40:51.584Z,10.02
2023-05-12T05:43:19.474Z,9.48
2023-05-12T05:45:46.112Z,10.00
2023-05-12T05:48:12.925Z,11.25
2023-05-12T05:50:39.772Z,8.20
2023-05-12T05:53:06.973Z,8.45
2023-05-12T05:55:33.727Z,9.70
2023-05-12T05:58:00.390Z,9.18
2023-05-12T06:00:27.110Z,9.85
2023-05-12T06:02:53.899Z,10.18
2023-05-12T06:05:21.093Z,6.43
2023-05-12T06:07:48.062Z,8.98
2023-05-12T06:10:14.788Z,12.05
2023-05-12T06:12:41.733Z,8.90
2023-05-12T06:15:09.082Z,10.63
2023-05-12T06:17:35.850Z,8.73
2023-05-12T06:20:03.162Z,9.70
2023-05-12T06:22:29.745Z,10.02
2023-05-12T06:24:56.535Z,12.05
2023-05-12T06:27:23.499Z,7.65
2023-05-12T06:29:51.791Z,6.95
2023-05-12T06:32:18.912Z,10.00
2023-05-12T06:34:45.795Z,8.18
2023-05-12T06:37:12.632Z,6.45
2023-05-12T06:39:39.325Z,6.45
2023-05-12T06:42:06.300Z,4.80
2023-05-12T06:44:33.079Z,6.38
2023-05-12T06:46:59.708Z,6.05
2023-05-12T06:49:26.454Z,7.47
2023-05-12T06:51:53.317Z,6.10
2023-05-12T06:54:20.152Z,5.32
2023-05-12T06:56:46.902Z,8.68
2023-05-12T06:59:13.673Z,5.18
2023-05-12T07:01:41.373Z,4.88
2023-05-12T07:04:08.174Z,4.38
2023-05-12T07:06:34.876Z,5.40
2023-05-12T07:09:01.579Z,6.43
2023-05-12T07:11:28.159Z,5.80
2023-05-12T07:13:57.570Z,5.45
2023-05-12T07:16:24.357Z,7.93
2023-05-12T07:18:51.251Z,5.05
2023-05-12T07:21:18.342Z,6.05
2023-05-12T07:23:45.156Z,10.43
2023-05-12T07:26:11.871Z,5.78
2023-05-12T07:28:38.574Z,10.05
2023-05-12T07:31:07.379Z,6.40
2023-05-12T07:33:36.348Z,4.78
2023-05-12T07:36:04.966Z,5.28
2023-05-12T07:38:32.337Z,5.80
2023-05-12T07:41:00.715Z,5.10
2023-05-12T07:43:27.630Z,4.07
2023-05-12T07:45:56.175Z,4.35
2023-05-12T07:48:22.969Z,5.38
2023-05-12T07:50:49.745Z,4.65
2023-05-12T07:53:16.464Z,4.03
2023-05-12T07:55:44.121Z,3.83
2023-05-12T07:58:11.700Z,4.38
2023-05-12T08:00:38.754Z,5.75
2023-05-12T08:03:07.826Z,6.60
2023-05-12T08:05:34.586Z,8.13
2023-05-12T08:08:01.184Z,4.80
2023-05-12T08:10:29.974Z,8.80
2023-05-12T08:12:56.843Z,6.15
2023-05-12T08:15:23.732Z,8.35
2023-05-12T08:17:50.387Z,7.32
2023-05-12T08:20:17.148Z,6.22
2023-05-12T08:22:44.652Z,6.00
2023-05-12T08:25:12.764Z,7.15
2023-05-12T08:27:39.648Z,6.65
2023-05-12T08:30:06.764Z,5.80
2023-05-12T08:32:33.620Z,6.00
2023-05-12T08:35:01.184Z,6.70
2023-05-12T08:37:28.038Z,4.47
2023-05-12T08:39:54.792Z,7.32
2023-05-12T08:42:37.506Z,5.85
2023-05-12T08:45:04.640Z,6.22
2023-05-12T08:47:33.239Z,7.50
2023-05-12T08:50:01.958Z,8.20
2023-05-12T08:52:30.652Z,6.47
2023-05-12T08:54:57.485Z,6.55
2023-05-12T08:57:25.329Z,4.32
2023-05-12T08:59:56.932Z,5.28
2023-05-12T09:02:24.679Z,6.93
2023-05-12T09:04:52.696Z,7.07
2023-05-12T09:07:20.058Z,5.30
2023-05-12T09:09:48.917Z,8.77
2023-05-12T09:12:17.067Z,3.95
2023-05-12T09:14:46.208Z,7.68
2023-05-12T09:17:14.045Z,5.85
2023-05-12T09:19:40.858Z,4.00
2023-05-12T09:22:09.685Z,4.93
2023-05-12T09:24:39.715Z,3.58
2023-05-12T09:27:07.289Z,6.47
2023-05-12T09:29:39.531Z,4.45
2023-05-12T09:34:38.649Z,5.00
2023-05-12T09:37:06.854Z,4.13
2023-05-12T09:39:34.134Z,5.78
2023-05-12T09:42:00.927Z,4.63
2023-05-12T09:44:29.458Z,5.07
2023-05-12T09:46:56.149Z,7.38
2023-05-12T09:49:26.061Z,6.65
2023-05-12T09:51:56.389Z,4.57
2023-05-12T09:54:31.142Z,4.82
2023-05-12T09:57:02.947Z,3.90
2023-05-12T09:59:34.594Z,3.45
2023-05-12T10:02:04.807Z,4.60
2023-05-12T10:04:53.243Z,3.78
2023-05-12T10:07:23.068Z,4.88
2023-05-12T10:09:50.088Z,6.45
2023-05-12T10:12:18.482Z,5.95
2023-05-12T10:14:46.248Z,5.55
2023-05-12T10:17:38.593Z,6.03
2023-05-12T10:20:07.017Z,4.13
2023-05-12T10:22:35.385Z,6.57
2023-05-12T10:25:05.664Z,3.47
2023-05-12T10:27:33.837Z,5.38
2023-05-12T10:30:01.688Z,5.72
2023-05-12T10:32:29.044Z,4.65
2023-05-12T10:34:56.627Z,5.43
2023-05-12T10:37:24.629Z,4.10
2023-05-12T10:39:53.059Z,3.80
2023-05-12T10:42:26.120Z,4.13
2023-05-12T10:44:58.228Z,5.97
2023-05-12T10:47:37.220Z,4.43
2023-05-12T10:50:04.279Z,4.88
2023-05-12T10:52:31.058Z,6.57
2023-05-12T10:55:02.258Z,4.90
2023-05-12T10:57:31.056Z,5.55
2023-05-12T10:59:59.832Z,5.35
2023-05-12T11:02:33.821Z,5.32
2023-05-12T11:05:06.780Z,3.50
2023-05-12T11:07:35.346Z,3.83
2023-05-12T11:10:05.472Z,4.72
2023-05-12T11:12:35.510Z,6.90
2023-05-12T11:15:03.892Z,8.20
2023-05-12T11:17:30.680Z,4.30
2023-05-12T11:19:58.439Z,4.78
2023-05-12T11:22:25.701Z,4.03
2023-05-12T11:24:53.123Z,4.10
2023-05-12T11:27:21.167Z,4.88
2023-05-12T11:30:06.706Z,5.32
2023-05-12T11:32:33.487Z,4.22
2023-05-12T11:35:17.643Z,4.40
2023-05-12T11:37:45.548Z,4.25
2023-05-12T11:40:21.081Z,5.32
2023-05-12T11:42:51.548Z,3.55
2023-05-12T11:45:25.284Z,4.05
2023-05-12T11:47:53.735Z,3.08
2023-05-12T11:50:24.522Z,4.10
2023-05-12T11:52:53.425Z,3.30
2023-05-12T11:55:24.462Z,8.40
2023-05-12T11:58:02.006Z,5.35
2023-05-12T12:00:37.796Z,9.18
2023-05-12T12:03:15.101Z,4.15
2023-05-12T12:05:45.515Z,4.05
2023-05-12T12:08:13.506Z,5.22
2023-05-12T12:10:44.648Z,6.40
2023-05-12T12:13:11.855Z,2.92
2023-05-12T12:15:38.982Z,3.67
2023-05-12T12:18:05.762Z,4.50
2023-05-12T12:20:32.715Z,5.20
2023-05-12T12:22:59.561Z,4.25
2023-05-12T12:25:26.941Z,6.07
2023-05-12T12:27:53.693Z,3.50
2023-05-12T12:30:20.609Z,7.18
2023-05-12T12:32:47.789Z,4.25
2023-05-12T12:35:14.606Z,4.95
2023-05-12T12:37:42.142Z,5.47
2023-05-12T12:40:10.212Z,5.10
2023-05-12T12:42:38.536Z,4.97
2023-05-12T12:45:05.705Z,6.25
2023-05-12T12:47:32.573Z,4.38
2023-05-12T12:49:59.897Z,11.73
2023-05-12T12:52:26.965Z,5.93
2023-05-12T12:54:53.751Z,3.15
2023-05-12T12:57:22.252Z,4.63
2023-05-12T12:59:49.712Z,5.10
2023-05-12T13:02:16.962Z,4.47
2023-05-12T13:04:43.801Z,10.73
2023-05-12T13:07:10.670Z,6.13
2023-05-12T13:09:37.531Z,4.72
2023-05-12T13:12:04.495Z,5.43
2023-05-12T13:14:31.654Z,3.45
2023-05-12T13:16:58.506Z,4.60
2023-05-12T13:19:25.419Z,3.55
2023-05-12T13:21:52.119Z,6.32
2023-05-12T13:24:19.037Z,3.90
2023-05-12T13:26:46.098Z,3.42
2023-05-12T13:29:13.167Z,4.38
2023-05-12T13:31:41.318Z,4.53
2023-05-12T13:34:08.335Z,6.20
2023-05-12T13:36:35.734Z,3.53
2023-05-12T13:39:03.720Z,4.00
2023-05-12T13:41:32.713Z,4.00
2023-05-12T13:43:59.582Z,6.32
2023-05-12T13:46:26.493Z,5.32
2023-05-12T13:48:53.970Z,3.50
2023-05-12T13:51:21.690Z,4.07
2023-05-12T13:53:48.610Z,3.30
2023-05-12T13:56:16.718Z,8.70
2023-05-12T13:58:47.027Z,4.65
2023-05-12T14:01:24.751Z,3.58
2023-05-12T14:03:53.812Z,5.13
2023-05-12T14:06:20.601Z,4.40
2023-05-12T14:09:13.365Z,4.07
2023-05-12T14:11:40.108Z,8.38
2023-05-12T14:14:07.170Z,4.60
2023-05-12T14:16:34.276Z,3.90
2023-05-12T14:19:01.271Z,4.70
2023-05-12T14:21:31.846Z,3.28
2023-05-12T14:23:58.606Z,3.72
2023-05-12T14:26:28.385Z,3.72
2023-05-12T14:28:55.951Z,6.85
2023-05-12T14:31:22.762Z,3.47
2023-05-12T14:33:49.708Z,3.75
2023-05-12T14:36:16.358Z,5.32
2023-05-12T14:38:43.077Z,7.32
2023-05-12T14:41:10.188Z,4.07
2023-05-12T14:43:37.495Z,5.30
2023-05-12T14:46:04.746Z,6.40
2023-05-12T14:48:31.860Z,5.82
2023-05-12T14:50:58.603Z,2.80
2023-05-12T14:53:25.397Z,2.35
2023-05-12T14:55:52.408Z,2.80
2023-05-12T14:58:22.745Z,5.97
2023-05-12T15:00:52.844Z,3.53
2023-05-12T15:03:21.345Z,3.58
2023-05-12T15:06:04.739Z,4.70
2023-05-12T15:08:32.129Z,4.07
2023-05-12T15:10:58.785Z,3.55
2023-05-12T15:13:25.759Z,5.55
2023-05-12T15:15:55.177Z,4.57
2023-05-12T15:18:23.477Z,3.80
2023-05-12T15:20:50.148Z,4.05
2023-05-12T15:23:16.855Z,5.57
2023-05-12T15:25:43.538Z,7.03
2023-05-12T15:28:10.266Z,6.25
2023-05-12T15:30:37.161Z,6.10
2023-05-12T15:33:04.417Z,4.28
2023-05-12T15:35:31.213Z,3.60
2023-05-12T15:37:57.982Z,4.88
2023-05-12T15:40:25.106Z,5.57
2023-05-12T15:42:51.979Z,5.40
2023-05-12T15:45:19.180Z,6.57
2023-05-12T15:47:46.119Z,5.50
2023-05-12T15:50:12.877Z,8.02
2023-05-12T15:52:39.554Z,12.30
2023-05-12T15:55:06.590Z,13.55
2023-05-12T15:57:33.309Z,3.92
2023-05-12T16:00:02.317Z,3.10
2023-05-12T16:02:29.534Z,8.45
2023-05-12T16:04:56.726Z,3.78
2023-05-12T16:07:23.389Z,5.20
2023-05-12T16:09:50.034Z,7.72
2023-05-12T16:12:17.780Z,6.38
2023-05-12T16:14:44.708Z,5.43
2023-05-12T16:17:11.484Z,5.70
2023-05-12T16:19:38.352Z,4.90
2023-05-12T16:22:05.286Z,4.13
2023-05-12T16:24:31.976Z,7.60
2023-05-12T16:26:59.490Z,4.18
2023-05-12T16:29:26.511Z,6.63
2023-05-12T16:31:53.825Z,3.42
2023-05-12T16:34:20.727Z,4.25
2023-05-12T16:36:47.401Z,6.40
2023-05-12T16:39:14.278Z,3.55
2023-05-12T16:41:41.121Z,3.00
2023-05-12T16:44:07.801Z,7.80
2023-05-12T16:46:34.671Z,4.28
2023-05-12T16:49:02.035Z,5.68
2023-05-12T16:51:31.128Z,5.43
2023-05-12T16:53:58.016Z,8.95
2023-05-12T16:56:26.040Z,6.05
2023-05-12T16:58:52.678Z,5.80
2023-05-12T17:01:19.535Z,3.75
2023-05-12T17:03:46.324Z,3.75
2023-05-12T17:06:13.325Z,11.23
2023-05-12T17:08:39.990Z,5.28
2023-05-12T17:11:06.862Z,4.50
2023-05-12T17:13:36.835Z,4.90
2023-05-12T17:16:04.450Z,7.13
2023-05-12T17:18:31.558Z,4.55
2023-05-12T17:20:59.027Z,4.60
2023-05-12T17:23:26.962Z,6.30
2023-05-12T17:25:54.233Z,4.38
2023-05-12T17:28:21.340Z,7.53
2023-05-12T17:30:51.525Z,3.65
2023-05-12T17:33:18.286Z,9.05
2023-05-12T17:35:53.991Z,15.07
2023-05-12T17:38:30.475Z,14.05
2023-05-12T17:40:57.471Z,7.47
2023-05-12T17:43:24.348Z,5.60
2023-05-12T17:45:51.092Z,4.78
2023-05-12T17:48:17.790Z,3.92
2023-05-12T17:50:44.465Z,5.68
2023-05-12T17:53:11.717Z,3.90
2023-05-12T17:55:38.517Z,3.78
2023-05-12T17:58:05.303Z,3.22
2023-05-12T18:00:31.990Z,3.95
2023-05-12T18:02:58.740Z,4.47
2023-05-12T18:05:25.522Z,5.53
2023-05-12T18:07:54.909Z,7.40
2023-05-12T18:10:21.796Z,4.88
2023-05-12T18:12:48.528Z,4.47
2023-05-12T18:15:17.122Z,3.25
2023-05-12T18:17:43.885Z,6.47
2023-05-12T18:20:11.010Z,3.55
2023-05-12T18:22:37.681Z,4.03
2023-05-12T18:25:04.569Z,7.53
2023-05-12T18:27:31.364Z,6.57
2023-05-12T18:29:58.103Z,6.47
2023-05-12T18:32:26.242Z,10.25
2023-05-12T18:34:53.063Z,10.07
2023-05-12T18:37:20.235Z,8.35
2023-05-12T18:39:46.860Z,5.60
2023-05-12T18:42:13.648Z,8.02
2023-05-12T18:44:41.369Z,8.07
2023-05-12T18:47:09.071Z,7.05
2023-05-12T18:49:36.743Z,7.32
2023-05-12T18:52:03.982Z,10.05
2023-05-12T18:54:30.685Z,8.95
2023-05-12T18:56:57.421Z,10.13
2023-05-12T18:59:24.194Z,6.70
2023-05-12T19:01:51.084Z,13.30
2023-05-12T19:04:19.619Z,6.38
2023-05-12T19:06:50.623Z,4.32
2023-05-12T19:09:17.358Z,11.02
2023-05-12T19:11:44.417Z,2.90
2023-05-12T19:14:12.126Z,4.65
2023-05-12T19:16:39.979Z,6.07
2023-05-12T19:19:06.821Z,5.05
2023-05-12T19:21:33.731Z,4.15
2023-05-12T19:24:01.306Z,3.67
2023-05-12T19:26:28.004Z,4.95
2023-05-12T19:28:54.698Z,4.68
2023-05-12T19:31:21.371Z,4.22
2023-05-12T19:33:48.113Z,6.13
2023-05-12T19:36:15.026Z,4.82
2023-05-12T19:38:43.682Z,3.78
2023-05-12T19:41:11.127Z,2.83
2023-05-12T19:43:37.907Z,2.40
2023-05-12T19:46:04.664Z,4.30
2023-05-12T19:48:36.425Z,5.05
2023-05-12T19:51:03.319Z,2.97
2023-05-12T19:53:30.078Z,4.28
2023-05-12T19:55:56.954Z,3.75
2023-05-12T19:58:25.248Z,3.65
2023-05-12T20:00:52.048Z,3.50
2023-05-12T20:03:19.149Z,3.22
2023-05-12T20:05:47.288Z,15.35
2023-05-12T20:08:15.155Z,5.90
2023-05-12T20:10:41.952Z,5.50
2023-05-12T20:13:08.732Z,5.65
2023-05-12T20:15:35.919Z,7.03
2023-05-12T20:18:02.723Z,5.57
2023-05-12T20:20:29.537Z,5.13
2023-05-12T20:22:56.297Z,7.43
2023-05-12T20:25:23.372Z,6.45
2023-05-12T20:27:50.237Z,9.68
2023-05-12T20:30:16.942Z,6.63
2023-05-12T20:32:43.914Z,5.50
2023-05-12T20:35:10.741Z,8.32
2023-05-12T20:37:37.444Z,8.80
2023-05-12T20:40:05.437Z,10.68
2023-05-12T20:42:32.105Z,9.65
2023-05-12T20:44:59.288Z,12.55
2023-05-12T20:47:26.053Z,9.60
2023-05-12T20:50:00.890Z,6.32
2023-05-12T20:52:29.918Z,6.55
2023-05-12T20:54:58.257Z,7.00
2023-05-12T20:57:26.049Z,6.70
2023-05-12T20:59:53.174Z,5.97
2023-05-12T21:02:38.325Z,7.18
2023-05-12T21:05:09.531Z,7.20
2023-05-12T21:07:36.547Z,10.70
2023-05-12T21:10:04.850Z,7.45
2023-05-12T21:12:31.914Z,9.30
2023-05-12T21:14:58.720Z,7.75
2023-05-12T21:17:25.675Z,7.15
2023-05-12T21:19:52.427Z,5.93
2023-05-12T21:22:19.247Z,9.23
2023-05-12T21:24:45.834Z,6.82
2023-05-12T21:27:12.457Z,5.10
2023-05-12T21:29:39.140Z,5.47
2023-05-12T21:32:06.317Z,5.47
2023-05-12T21:34:33.903Z,6.28
2023-05-12T21:37:00.771Z,6.45
2023-05-12T21:39:28.060Z,6.70
2023-05-12T21:41:54.900Z,6.00
2023-05-12T21:44:21.562Z,7.07
2023-05-12T21:46:48.342Z,6.22
2023-05-12T21:49:15.051Z,10.27
2023-05-12T21:51:42.108Z,5.20
2023-05-12T21:54:09.102Z,7.47
2023-05-12T21:56:35.816Z,6.97
2023-05-12T21:59:02.450Z,7.25
2023-05-12T22:01:29.970Z,7.55
2023-05-12T22:04:00.104Z,6.00
2023-05-12T22:06:27.082Z,6.30
2023-05-12T22:08:54.256Z,6.38
2023-05-12T22:11:21.874Z,5.65
2023-05-12T22:13:48.811Z,8.43
2023-05-12T22:16:15.732Z,5.03
2023-05-12T22:18:45.919Z,5.88
2023-05-12T22:21:13.205Z,10.27
2023-05-12T22:23:41.881Z,5.75
2023-05-12T22:26:09.354Z,8.63
2023-05-12T22:28:36.277Z,5.47
2023-05-12T22:31:03.177Z,5.80
2023-05-12T22:33:29.823Z,5.13
2023-05-12T22:35:59.032Z,5.63
2023-05-12T22:38:26.408Z,6.82
2023-05-12T22:40:53.491Z,6.85
2023-05-12T22:43:20.180Z,13.32
2023-05-12T22:45:53.155Z,9.13
2023-05-12T22:48:20.369Z,8.88
2023-05-12T22:50:47.285Z,6.82
2023-05-12T22:53:14.229Z,6.95
2023-05-12T22:55:41.165Z,8.13
2023-05-12T22:58:07.905Z,4.25
2023-05-12T23:00:34.602Z,5.78
2023-05-12T23:03:01.399Z,4.70
2023-05-12T23:05:28.187Z,6.45
2023-05-12T23:07:54.902Z,7.55
2023-05-12T23:10:21.764Z,5.35
2023-05-12T23:12:48.649Z,7.05
2023-05-12T23:15:15.337Z,4.78
2023-05-12T23:17:42.102Z,6.18
2023-05-12T23:20:09.172Z,7.40
2023-05-12T23:22:35.787Z,6.72
2023-05-12T23:25:02.426Z,3.63
2023-05-12T23:27:29.057Z,3.92
2023-05-12T23:29:55.824Z,8.75
2023-05-12T23:32:22.565Z,6.07
2023-05-12T23:34:49.371Z,5.15
2023-05-12T23:37:16.010Z,9.82
2023-05-12T23:39:42.647Z,5.80
2023-05-12T23:42:09.361Z,6.93
2023-05-12T23:44:36.170Z,5.43
2023-05-12T23:47:02.900Z,6.63
2023-05-12T23:49:29.567Z,5.07
2023-05-12T23:51:56.185Z,5.65
2023-05-12T23:54:22.932Z,7.80
2023-05-12T23:56:49.629Z,7.38
2023-05-12T23:59:16.709Z,5.65
